createdAt,value
2023-04-26T00:00:57.281Z,15.07
2023-04-26T00:03:37.639Z,17.55
2023-04-26T00:06:15.285Z,10.45
2023-04-26T00:08:59.875Z,18.75
2023-04-26T00:11:36.831Z,12.85
2023-04-26T00:14:13.952Z,15.73
2023-04-26T00:16:52.908Z,11.10
2023-04-26T00:19:33.288Z,11.13
2023-04-26T00:22:19.837Z,11.00
2023-04-26T00:27:32.190Z,13.53
2023-04-26T00:30:14.684Z,10.93
2023-04-26T00:32:55.180Z,10.50
2023-04-26T00:35:35.731Z,13.95
2023-04-26T00:38:14.247Z,10.25
2023-04-26T00:40:52.460Z,15.52
2023-04-26T00:43:30.780Z,8.65
2023-04-26T00:46:06.028Z,10.55
2023-04-26T00:48:50.278Z,12.68
2023-04-26T00:51:29.414Z,13.05
2023-04-26T00:54:06.949Z,13.93
2023-04-26T00:56:42.257Z,11.23
2023-04-26T00:59:22.107Z,15.80
2023-04-26T01:01:56.965Z,14.73
2023-04-26T01:04:45.995Z,12.25
2023-04-26T01:07:22.965Z,10.30
2023-04-26T01:10:01.768Z,16.83
2023-04-26T01:12:40.154Z,14.00
2023-04-26T01:15:28.319Z,13.20
2023-04-26T01:18:13.535Z,12.45
2023-04-26T01:20:53.978Z,14.43
2023-04-26T01:23:36.117Z,13.25
2023-04-26T01:26:13.147Z,14.60
2023-04-26T01:28:51.073Z,11.93
2023-04-26T01:31:29.964Z,11.60
2023-04-26T01:34:09.809Z,13.60
2023-04-26T01:36:53.930Z,14.90
2023-04-26T01:39:32.726Z,14.90
2023-04-26T01:42:12.433Z,12.10
2023-04-26T01:44:50.506Z,13.65
2023-04-26T01:47:27.482Z,11.68
2023-04-26T01:50:02.496Z,12.83
2023-04-26T01:52:38.919Z,10.10
2023-04-26T01:55:19.109Z,9.63
2023-04-26T01:58:02.741Z,11.35
2023-04-26T02:00:38.862Z,9.23
2023-04-26T02:05:58.397Z,9.32
2023-04-26T02:08:37.080Z,11.57
2023-04-26T02:11:16.707Z,8.52
2023-04-26T02:13:52.779Z,9.20
2023-04-26T02:16:32.997Z,9.95
2023-04-26T02:19:14.158Z,11.40
2023-04-26T02:21:56.505Z,14.23
2023-04-26T02:24:33.493Z,9.77
2023-04-26T02:27:17.443Z,9.00
2023-04-26T02:32:32.083Z,10.48
2023-04-26T02:35:11.045Z,8.30
2023-04-26T02:37:50.177Z,10.90
2023-04-26T02:40:26.583Z,10.70
2023-04-26T02:43:08.254Z,9.33
2023-04-26T02:45:45.973Z,9.10
2023-04-26T02:48:24.418Z,9.73
2023-04-26T02:51:01.123Z,8.25
2023-04-26T02:53:39.221Z,10.30
2023-04-26T02:56:20.032Z,8.00
2023-04-26T02:59:00.471Z,14.10
2023-04-26T03:01:36.252Z,10.75
2023-04-26T03:06:48.374Z,8.75
2023-04-26T03:09:30.522Z,10.60
2023-04-26T03:12:08.616Z,9.52
2023-04-26T03:14:48.798Z,9.82
2023-04-26T03:17:24.677Z,8.43
2023-04-26T03:22:37.885Z,12.50
2023-04-26T03:25:16.907Z,15.50
2023-04-26T03:27:57.025Z,9.43
2023-04-26T03:30:36.824Z,11.70
2023-04-26T03:33:17.425Z,12.38
2023-04-26T03:35:56.385Z,11.05
2023-04-26T03:38:32.289Z,10.55
2023-04-26T03:43:49.200Z,8.63
2023-04-26T03:46:32.978Z,7.35
2023-04-26T03:49:08.408Z,7.32
2023-04-26T03:51:45.625Z,8.30
2023-04-26T03:54:21.044Z,10.73
2023-04-26T03:56:57.668Z,7.95
2023-04-26T03:59:35.424Z,7.82
2023-04-26T04:02:16.149Z,11.35
2023-04-26T04:04:54.506Z,8.68
2023-04-26T04:07:32.815Z,11.20
2023-04-26T04:10:11.457Z,8.50
2023-04-26T04:12:48.872Z,8.25
2023-04-26T04:18:08.561Z,8.93
2023-04-26T04:20:46.450Z,6.78
2023-04-26T04:23:22.795Z,9.38
2023-04-26T04:25:59.823Z,8.45
2023-04-26T04:28:36.215Z,5.28
2023-04-26T04:31:15.022Z,7.15
2023-04-26T04:33:54.693Z,7.35
2023-04-26T04:36:36.194Z,5.18
2023-04-26T04:39:16.971Z,7.97
2023-04-26T04:41:58.840Z,7.88
2023-04-26T04:44:34.457Z,10.38
2023-04-26T04:47:10.454Z,12.23
2023-04-26T04:49:49.879Z,11.90
2023-04-26T04:52:31.730Z,6.18
2023-04-26T04:55:08.498Z,8.50
2023-04-26T04:57:49.023Z,5.60
2023-04-26T05:00:25.778Z,7.07
2023-04-26T05:03:11.870Z,5.47
2023-04-26T05:05:53.116Z,6.28
2023-04-26T05:08:32.692Z,6.67
2023-04-26T05:11:16.846Z,10.27
2023-04-26T05:14:04.475Z,8.13
2023-04-26T05:16:53.538Z,14.23
2023-04-26T05:19:31.609Z,7.93
2023-04-26T05:22:06.506Z,6.43
2023-04-26T05:24:49.460Z,6.90
2023-04-26T05:27:27.601Z,5.95
2023-04-26T05:30:31.083Z,5.35
2023-04-26T05:33:41.792Z,6.97
2023-04-26T05:36:39.866Z,9.13
2023-04-26T05:39:33.086Z,8.93
2023-04-26T05:42:16.363Z,7.68
2023-04-26T05:48:38.662Z,9.40
2023-04-26T05:54:36.921Z,7.15
2023-04-26T05:57:46.484Z,6.85
2023-04-26T06:00:34.517Z,5.32
2023-04-26T06:07:12.589Z,10.45
2023-04-26T06:09:58.770Z,5.68
2023-04-26T06:12:39.463Z,7.20
2023-04-26T06:15:21.005Z,6.43
2023-04-26T06:24:38.813Z,7.15
2023-04-26T06:27:22.969Z,10.57
2023-04-26T06:29:57.512Z,7.53
2023-04-26T06:32:47.795Z,7.40
2023-04-26T06:35:37.405Z,6.32
2023-04-26T06:38:18.491Z,7.47
2023-04-26T06:41:14.397Z,6.88
2023-04-26T06:43:57.894Z,14.37
2023-04-26T06:46:45.955Z,7.33
2023-04-26T06:49:26.592Z,5.65
2023-04-26T06:55:21.702Z,8.35
2023-04-26T06:58:04.064Z,12.80
2023-04-26T07:00:48.504Z,6.53
2023-04-26T07:03:32.444Z,6.75
2023-04-26T07:06:22.459Z,10.63
2023-04-26T07:09:09.989Z,6.55
2023-04-26T07:11:51.389Z,4.60
2023-04-26T07:14:31.084Z,7.75
2023-04-26T07:17:07.661Z,10.35
2023-04-26T07:19:45.258Z,6.65
2023-04-26T07:28:42.125Z,6.25
2023-04-26T07:32:04.603Z,7.07
2023-04-26T07:34:49.767Z,5.85
2023-04-26T07:37:52.508Z,5.93
2023-04-26T07:44:13.481Z,7.25
2023-04-26T07:47:21.785Z,6.00
2023-04-26T07:59:59.134Z,7.40
2023-04-26T08:15:17.356Z,6.70
2023-04-26T08:18:09.431Z,9.00
2023-04-26T08:20:45.736Z,4.10
2023-04-26T08:23:23.464Z,8.65
2023-04-26T08:35:43.401Z,8.27
2023-04-26T08:38:38.172Z,4.43
2023-04-26T08:47:49.224Z,7.70
2023-04-26T08:50:31.177Z,9.48
2023-04-26T08:53:06.812Z,4.28
2023-04-26T09:02:28.501Z,2.88
2023-04-26T09:13:55.801Z,5.72
2023-04-26T09:17:00.256Z,4.72
2023-04-26T09:19:43.552Z,5.40
2023-04-26T09:22:37.457Z,6.35
2023-04-26T09:25:23.345Z,3.90
2023-04-26T09:28:06.280Z,2.88
2023-04-26T09:30:47.819Z,5.00
2023-04-26T09:33:34.455Z,5.22
2023-04-26T09:36:24.575Z,5.20
2023-04-26T09:39:13.415Z,5.15
2023-04-26T09:45:00.213Z,4.20
2023-04-26T09:48:02.517Z,4.45
2023-04-26T09:51:06.977Z,3.30
2023-04-26T09:53:50.184Z,4.22
2023-04-26T09:56:53.145Z,5.25
2023-04-26T10:02:58.292Z,3.15
2023-04-26T10:05:50.271Z,4.10
2023-04-26T10:11:53.405Z,1.88
2023-04-26T10:17:55.332Z,2.20
2023-04-26T10:23:49.831Z,4.68
2023-04-26T10:26:58.184Z,4.60
2023-04-26T10:30:27.534Z,7.20
2023-04-26T10:33:51.437Z,4.38
2023-04-26T10:36:36.555Z,3.53
2023-04-26T10:39:41.375Z,1.90
2023-04-26T10:42:37.463Z,6.13
2023-04-26T10:45:40.643Z,4.90
2023-04-26T10:48:30.176Z,4.67
2023-04-26T10:51:17.656Z,4.80
2023-04-26T10:54:04.812Z,2.93
2023-04-26T10:57:03.588Z,4.03
2023-04-26T11:03:14.026Z,3.60
2023-04-26T11:05:49.737Z,3.97
2023-04-26T11:08:46.100Z,4.97
2023-04-26T11:14:35.709Z,4.57
2023-04-26T11:17:39.585Z,4.85
2023-04-26T11:20:23.668Z,3.30
2023-04-26T11:23:09.588Z,5.15
2023-04-26T11:26:16.133Z,4.70
2023-04-26T11:32:00.890Z,6.90
2023-04-26T11:34:52.431Z,8.10
2023-04-26T11:37:28.406Z,4.50
2023-04-26T11:40:10.230Z,4.95
2023-04-26T11:42:58.813Z,4.30
2023-04-26T11:45:50.123Z,2.25
2023-04-26T11:48:35.359Z,2.67
2023-04-26T11:51:15.251Z,2.58
2023-04-26T11:54:11.792Z,4.50
2023-04-26T11:56:47.889Z,5.25
2023-04-26T11:59:32.643Z,2.63
2023-04-26T12:02:13.765Z,2.53
2023-04-26T12:05:01.875Z,3.63
2023-04-26T12:07:51.234Z,7.20
2023-04-26T12:14:25.258Z,4.10
2023-04-26T12:17:16.224Z,4.40
2023-04-26T12:20:16.604Z,6.63
2023-04-26T12:28:59.923Z,5.00
2023-04-26T12:31:34.968Z,3.85
2023-04-26T12:34:14.894Z,5.23
2023-04-26T12:37:05.079Z,4.20
2023-04-26T12:39:41.358Z,3.83
2023-04-26T12:42:21.299Z,5.07
2023-04-26T12:45:18.852Z,6.32
2023-04-26T12:50:51.753Z,3.67
2023-04-26T12:53:29.544Z,4.30
2023-04-26T12:56:07.387Z,3.45
2023-04-26T12:58:50.324Z,3.63
2023-04-26T13:01:29.566Z,4.30
2023-04-26T13:04:09.952Z,4.77
2023-04-26T13:06:48.649Z,3.08
2023-04-26T13:09:23.897Z,3.80
2023-04-26T13:15:54.834Z,4.57
2023-04-26T13:18:42.211Z,4.05
2023-04-26T13:21:26.482Z,3.72
2023-04-26T13:24:12.582Z,2.75
2023-04-26T13:26:55.868Z,4.43
2023-04-26T13:29:34.392Z,3.30
2023-04-26T13:32:23.005Z,5.72
2023-04-26T13:35:01.798Z,2.15
2023-04-26T13:37:39.161Z,3.15
2023-04-26T13:40:22.668Z,3.05
2023-04-26T13:42:57.430Z,4.45
2023-04-26T13:45:37.069Z,7.07
2023-04-26T13:48:19.208Z,4.43
2023-04-26T13:50:59.723Z,2.65
2023-04-26T13:57:04.628Z,3.70
2023-04-26T13:59:41.823Z,6.32
2023-04-26T14:02:27.482Z,4.05
2023-04-26T14:05:09.001Z,2.47
2023-04-26T14:08:06.319Z,3.83
2023-04-26T14:11:02.009Z,5.15
2023-04-26T14:17:34.345Z,3.63
2023-04-26T14:20:13.849Z,2.70
2023-04-26T14:22:59.459Z,1.90
2023-04-26T14:28:42.607Z,3.03
2023-04-26T14:31:36.353Z,5.32
2023-04-26T14:34:26.363Z,7.05
2023-04-26T14:37:17.555Z,3.13
2023-04-26T14:40:29.636Z,2.90
2023-04-26T14:43:12.271Z,2.50
2023-04-26T14:48:53.171Z,3.83
2023-04-26T14:51:35.237Z,2.88
2023-04-26T14:54:13.949Z,4.10
2023-04-26T14:57:01.801Z,1.65
2023-04-26T14:59:51.472Z,2.05
2023-04-26T15:02:33.376Z,6.90
2023-04-26T15:05:34.307Z,3.22
2023-04-26T15:08:23.089Z,2.95
2023-04-26T15:13:55.698Z,3.05
2023-04-26T15:22:49.106Z,2.33
2023-04-26T15:25:47.258Z,4.13
2023-04-26T15:28:23.330Z,4.68
2023-04-26T15:31:12.302Z,3.55
2023-04-26T15:33:54.547Z,3.63
2023-04-26T15:36:52.704Z,3.88
2023-04-26T15:42:53.649Z,3.07
2023-04-26T15:45:44.190Z,4.13
2023-04-26T15:54:41.867Z,2.60
2023-04-26T15:57:22.267Z,4.47
2023-04-26T16:00:20.199Z,2.45
2023-04-26T16:03:04.724Z,4.32
2023-04-26T16:05:51.654Z,8.95
2023-04-26T16:08:46.151Z,8.45
2023-04-26T16:11:24.936Z,11.77
2023-04-26T16:14:05.420Z,6.20
2023-04-26T16:16:49.274Z,5.60
2023-04-26T16:19:50.325Z,3.27
2023-04-26T16:25:48.884Z,5.70
2023-04-26T16:28:30.738Z,4.35
2023-04-26T16:31:30.540Z,5.37
2023-04-26T16:40:49.595Z,3.23
2023-04-26T16:43:38.059Z,6.97
2023-04-26T16:49:42.801Z,3.25
2023-04-26T16:55:41.650Z,1.90
2023-04-26T17:01:18.179Z,4.43
2023-04-26T17:07:03.332Z,6.65
2023-04-26T17:10:04.374Z,5.25
2023-04-26T17:19:00.987Z,7.85
2023-04-26T17:21:49.739Z,4.07
2023-04-26T17:27:25.844Z,12.95
2023-04-26T17:36:34.341Z,4.53
2023-04-26T17:39:18.191Z,5.40
2023-04-26T17:42:13.647Z,4.93
2023-04-26T18:04:45.171Z,3.88
2023-04-26T18:10:19.233Z,5.03
2023-04-26T18:12:59.226Z,4.95
2023-04-26T18:15:37.619Z,5.03
2023-04-26T18:18:21.496Z,3.35
2023-04-26T18:21:03.724Z,5.20
2023-04-26T18:23:40.913Z,7.57
2023-04-26T18:26:27.438Z,9.02
2023-04-26T18:29:05.403Z,8.73
2023-04-26T18:31:42.054Z,7.18
2023-04-26T18:34:27.287Z,6.80
2023-04-26T18:37:05.753Z,5.10
2023-04-26T18:39:45.911Z,6.95
2023-04-26T18:42:27.170Z,9.70
2023-04-26T18:45:06.902Z,8.15
2023-04-26T18:47:47.503Z,4.70
2023-04-26T18:50:34.415Z,6.87
2023-04-26T18:53:23.571Z,9.60
2023-04-26T18:56:04.834Z,11.57
2023-04-26T18:58:40.967Z,10.23
2023-04-26T19:03:54.213Z,12.65
2023-04-26T19:06:36.040Z,10.90
2023-04-26T19:09:15.964Z,13.07
2023-04-26T19:11:59.835Z,14.30
2023-04-26T19:14:39.591Z,16.45
2023-04-26T19:17:18.254Z,15.23
2023-04-26T19:19:59.032Z,12.13
2023-04-26T19:22:42.065Z,11.38
2023-04-26T19:25:21.247Z,14.73
2023-04-26T19:27:59.298Z,11.93
2023-04-26T19:30:44.449Z,10.57
2023-04-26T19:33:23.691Z,12.85
2023-04-26T19:36:07.236Z,8.45
2023-04-26T19:38:55.873Z,8.50
2023-04-26T19:41:39.530Z,7.88
2023-04-26T19:44:21.616Z,9.25
2023-04-26T19:46:57.797Z,8.15
2023-04-26T19:52:14.094Z,13.45
2023-04-26T19:54:57.601Z,10.70
2023-04-26T19:57:35.340Z,19.67
2023-04-26T20:00:17.652Z,16.60
2023-04-26T20:02:56.492Z,16.13
2023-04-26T20:05:32.616Z,13.70
2023-04-26T20:08:09.028Z,12.27
2023-04-26T20:10:52.940Z,11.27
2023-04-26T20:13:33.465Z,14.47
2023-04-26T20:16:15.675Z,11.60
2023-04-26T20:18:55.149Z,16.92
2023-04-26T20:21:40.067Z,13.60
2023-04-26T20:24:31.837Z,12.30
2023-04-26T20:27:16.865Z,11.80
2023-04-26T20:29:57.151Z,12.70
2023-04-26T20:32:41.384Z,10.95
2023-04-26T20:35:20.142Z,13.07
2023-04-26T20:37:57.998Z,11.85
2023-04-26T20:40:38.363Z,10.83
2023-04-26T20:43:21.528Z,14.23
2023-04-26T20:45:58.639Z,13.97
2023-04-26T20:48:39.685Z,11.60
2023-04-26T20:51:20.328Z,11.85
2023-04-26T20:54:00.190Z,12.53
2023-04-26T20:56:40.978Z,12.10
2023-04-26T20:59:24.963Z,14.60
2023-04-26T21:02:08.603Z,12.70
2023-04-26T21:04:47.705Z,13.43
2023-04-26T21:07:21.607Z,14.20
2023-04-26T21:10:00.500Z,15.50
2023-04-26T21:12:43.461Z,18.20
2023-04-26T21:15:27.072Z,15.97
2023-04-26T21:18:04.547Z,12.27
2023-04-26T21:20:43.265Z,13.90
2023-04-26T21:23:21.531Z,13.95
2023-04-26T21:26:03.218Z,13.70
2023-04-26T21:28:51.171Z,10.55
2023-04-26T21:31:32.873Z,11.10
2023-04-26T21:34:12.214Z,15.90
2023-04-26T21:36:48.977Z,13.10
2023-04-26T21:39:30.309Z,12.52
2023-04-26T21:42:05.122Z,11.32
2023-04-26T21:44:43.335Z,15.80
2023-04-26T21:47:23.596Z,17.83
2023-04-26T21:50:03.027Z,16.10
2023-04-26T21:52:40.844Z,21.80
2023-04-26T21:55:19.524Z,15.38
2023-04-26T21:58:00.352Z,22.83
2023-04-26T22:00:49.716Z,25.10
2023-04-26T22:03:29.863Z,34.43
2023-04-26T22:06:10.860Z,20.45
2023-04-26T22:08:46.626Z,20.05
2023-04-26T22:11:31.236Z,17.95
2023-04-26T22:14:07.337Z,20.02
2023-04-26T22:19:24.396Z,23.55
2023-04-26T22:22:00.149Z,23.43
2023-04-26T22:24:45.698Z,26.20
2023-04-26T22:27:30.170Z,22.33
2023-04-26T22:30:20.511Z,17.83
2023-04-26T22:33:00.548Z,18.07
2023-04-26T22:38:17.106Z,19.27
2023-04-26T22:40:58.217Z,21.25
2023-04-26T22:43:36.542Z,19.20
2023-04-26T22:46:23.156Z,18.52
2023-04-26T22:48:55.846Z,16.92
2023-04-26T22:51:45.946Z,17.05
2023-04-26T22:54:26.706Z,20.70
2023-04-26T22:57:08.105Z,17.80
2023-04-26T22:59:45.414Z,15.40
2023-04-26T23:02:23.312Z,18.60
2023-04-26T23:05:02.246Z,20.55
2023-04-26T23:07:42.282Z,15.90
2023-04-26T23:10:20.182Z,20.05
2023-04-26T23:12:56.163Z,15.50
2023-04-26T23:15:34.409Z,16.03
2023-04-26T23:18:14.129Z,16.70
2023-04-26T23:20:49.824Z,13.50
2023-04-26T23:23:33.502Z,10.07
2023-04-26T23:26:11.788Z,14.43
2023-04-26T23:28:51.906Z,13.93
2023-04-26T23:31:28.002Z,13.83
2023-04-26T23:34:06.366Z,13.53
2023-04-26T23:36:43.427Z,19.52
2023-04-26T23:39:24.742Z,15.85
2023-04-26T23:42:04.123Z,13.82
2023-04-26T23:44:45.064Z,14.13
2023-04-26T23:47:21.851Z,15.30
2023-04-26T23:50:01.096Z,14.00
2023-04-26T23:52:39.261Z,11.53
2023-04-26T23:55:22.589Z,14.43
2023-04-26T23:58:02.069Z,16.80
